sensor_id;sensor_type;location;lat;lon;timestamp;pressure;altitude;pressure_sealevel;temperature;humidity
35778;BME280;21899;42.662;23.316;2023-02-08T00:02:17;95895.91;;;-5.24;81.88
35778;BME280;21899;42.662;23.316;2023-02-08T00:04:42;95910.88;;;-5.14;81.57
35778;BME280;21899;42.662;23.316;2023-02-08T00:07:08;95915.38;;;-5.05;81.32
35778;BME280;21899;42.662;23.316;2023-02-08T00:09:33;95914.56;;;-5.05;81.45
35778;BME280;21899;42.662;23.316;2023-02-08T00:11:58;95911.50;;;-5.02;81.05
35778;BME280;21899;42.662;23.316;2023-02-08T00:14:24;95906.81;;;-4.95;80.96
35778;BME280;21899;42.662;23.316;2023-02-08T00:16:49;95928.28;;;-4.88;80.81
35778;BME280;21899;42.662;23.316;2023-02-08T00:19:15;95918.06;;;-4.95;80.29
35778;BME280;21899;42.662;23.316;2023-02-08T00:21:40;95921.22;;;-4.93;80.13
35778;BME280;21899;42.662;23.316;2023-02-08T00:24:06;95922.56;;;-4.85;79.28
35778;BME280;21899;42.662;23.316;2023-02-08T00:26:31;95931.41;;;-4.91;79.14
35778;BME280;21899;42.662;23.316;2023-02-08T00:28:56;95922.50;;;-4.95;80.27
35778;BME280;21899;42.662;23.316;2023-02-08T00:31:22;95933.22;;;-4.92;79.48
35778;BME280;21899;42.662;23.316;2023-02-08T00:33:47;95922.50;;;-4.95;78.78
35778;BME280;21899;42.662;23.316;2023-02-08T00:36:13;95942.66;;;-4.91;78.49
35778;BME280;21899;42.662;23.316;2023-02-08T00:38:38;95939.25;;;-4.91;78.88
35778;BME280;21899;42.662;23.316;2023-02-08T00:41:04;95945.28;;;-4.86;79.02
35778;BME280;21899;42.662;23.316;2023-02-08T00:43:30;95930.63;;;-4.92;79.13
35778;BME280;21899;42.662;23.316;2023-02-08T00:45:57;95955.59;;;-4.69;78.51
35778;BME280;21899;42.662;23.316;2023-02-08T00:48:23;95957.44;;;-4.70;78.58
35778;BME280;21899;42.662;23.316;2023-02-08T00:51:07;95958.22;;;-4.64;79.38
35778;BME280;21899;42.662;23.316;2023-02-08T00:53:37;95955.63;;;-4.64;78.36
35778;BME280;21899;42.662;23.316;2023-02-08T00:56:04;95948.56;;;-4.64;77.84
35778;BME280;21899;42.662;23.316;2023-02-08T00:58:29;95954.09;;;-4.60;78.26
35778;BME280;21899;42.662;23.316;2023-02-08T01:00:55;95962.94;;;-4.66;77.95
35778;BME280;21899;42.662;23.316;2023-02-08T01:03:22;95959.81;;;-4.63;78.97
35778;BME280;21899;42.662;23.316;2023-02-08T01:05:47;95966.06;;;-4.64;78.39
35778;BME280;21899;42.662;23.316;2023-02-08T01:08:13;95954.09;;;-4.60;79.38
35778;BME280;21899;42.662;23.316;2023-02-08T01:10:38;95955.19;;;-4.56;78.17
35778;BME280;21899;42.662;23.316;2023-02-08T01:13:04;95941.75;;;-4.70;78.52
35778;BME280;21899;42.662;23.316;2023-02-08T01:15:29;95961.19;;;-4.51;78.62
35778;BME280;21899;42.662;23.316;2023-02-08T01:17:55;95963.34;;;-4.43;78.74
35778;BME280;21899;42.662;23.316;2023-02-08T01:20:21;95952.88;;;-4.43;78.10
35778;BME280;21899;42.662;23.316;2023-02-08T01:22:46;95961.03;;;-4.34;77.50
35778;BME280;21899;42.662;23.316;2023-02-08T01:25:12;95951.63;;;-4.40;78.51
35778;BME280;21899;42.662;23.316;2023-02-08T01:27:37;95955.84;;;-4.29;78.74
35778;BME280;21899;42.662;23.316;2023-02-08T01:30:04;95954.81;;;-4.28;77.96
35778;BME280;21899;42.662;23.316;2023-02-08T01:32:29;95944.84;;;-4.31;78.71
35778;BME280;21899;42.662;23.316;2023-02-08T01:34:55;95942.94;;;-4.46;78.78
35778;BME280;21899;42.662;23.316;2023-02-08T01:37:20;95952.22;;;-4.28;79.21
35778;BME280;21899;42.662;23.316;2023-02-08T01:39:46;95957.41;;;-4.33;79.04
35778;BME280;21899;42.662;23.316;2023-02-08T01:42:16;95956.53;;;-4.49;79.26
35778;BME280;21899;42.662;23.316;2023-02-08T01:47:47;95957.81;;;-4.46;80.00
35778;BME280;21899;42.662;23.316;2023-02-08T01:50:14;95940.81;;;-4.54;79.65
35778;BME280;21899;42.662;23.316;2023-02-08T01:52:40;95955.25;;;-4.41;79.00
35778;BME280;21899;42.662;23.316;2023-02-08T01:55:11;95957.53;;;-4.55;79.49
35778;BME280;21899;42.662;23.316;2023-02-08T01:57:37;95957.28;;;-4.53;79.49
35778;BME280;21899;42.662;23.316;2023-02-08T02:00:07;95959.84;;;-4.58;79.70
35778;BME280;21899;42.662;23.316;2023-02-08T02:02:37;95948.31;;;-4.62;80.14
35778;BME280;21899;42.662;23.316;2023-02-08T02:05:03;95954.84;;;-4.65;79.97
35778;BME280;21899;42.662;23.316;2023-02-08T02:07:30;95962.88;;;-4.76;80.14
35778;BME280;21899;42.662;23.316;2023-02-08T02:12:37;95959.72;;;-4.78;81.46
35778;BME280;21899;42.662;23.316;2023-02-08T02:15:05;95970.78;;;-4.66;81.48
35778;BME280;21899;42.662;23.316;2023-02-08T02:17:31;95969.22;;;-4.62;81.24
35778;BME280;21899;42.662;23.316;2023-02-08T02:20:17;95976.13;;;-4.46;80.80
35778;BME280;21899;42.662;23.316;2023-02-08T02:28:30;95987.91;;;-4.44;81.79
35778;BME280;21899;42.662;23.316;2023-02-08T02:36:55;95996.00;;;-4.45;83.45
35778;BME280;21899;42.662;23.316;2023-02-08T02:45:02;95992.78;;;-4.57;84.51
35778;BME280;21899;42.662;23.316;2023-02-08T02:54:02;96002.00;;;-4.50;87.03
35778;BME280;21899;42.662;23.316;2023-02-08T02:56:20;95994.28;;;-4.66;87.25
35778;BME280;21899;42.662;23.316;2023-02-08T02:58:48;95988.47;;;-4.73;87.75
35778;BME280;21899;42.662;23.316;2023-02-08T03:01:21;96006.25;;;-4.70;88.91
35778;BME280;21899;42.662;23.316;2023-02-08T03:03:50;95991.63;;;-4.71;89.42
35778;BME280;21899;42.662;23.316;2023-02-08T03:06:27;96006.38;;;-4.55;88.87
35778;BME280;21899;42.662;23.316;2023-02-08T03:09:21;96009.06;;;-4.45;89.18
35778;BME280;21899;42.662;23.316;2023-02-08T03:11:56;96010.59;;;-4.49;89.03
35778;BME280;21899;42.662;23.316;2023-02-08T03:14:44;96006.38;;;-4.55;90.11
35778;BME280;21899;42.662;23.316;2023-02-08T03:22:44;96014.59;;;-4.73;90.67
35778;BME280;21899;42.662;23.316;2023-02-08T03:31:40;95979.75;;;-4.84;91.58
35778;BME280;21899;42.662;23.316;2023-02-08T03:34:17;95997.78;;;-4.82;91.31
35778;BME280;21899;42.662;23.316;2023-02-08T03:36:55;95999.84;;;-4.89;91.08
35778;BME280;21899;42.662;23.316;2023-02-08T03:39:25;95998.22;;;-4.95;91.37
35778;BME280;21899;42.662;23.316;2023-02-08T03:41:55;96005.03;;;-4.94;92.21
35778;BME280;21899;42.662;23.316;2023-02-08T03:44:33;95997.16;;;-4.99;92.62
35778;BME280;21899;42.662;23.316;2023-02-08T03:47:14;95998.16;;;-5.00;92.15
35778;BME280;21899;42.662;23.316;2023-02-08T03:49:42;96011.16;;;-5.05;92.53
35778;BME280;21899;42.662;23.316;2023-02-08T03:52:10;95996.16;;;-5.20;93.13
35778;BME280;21899;42.662;23.316;2023-02-08T03:54:45;96013.72;;;-5.10;94.07
35778;BME280;21899;42.662;23.316;2023-02-08T03:57:23;96009.50;;;-5.16;93.91
35778;BME280;21899;42.662;23.316;2023-02-08T04:00:11;96015.22;;;-5.19;94.03
35778;BME280;21899;42.662;23.316;2023-02-08T04:02:44;96003.13;;;-5.30;94.42
35778;BME280;21899;42.662;23.316;2023-02-08T04:05:12;96011.53;;;-5.45;95.35
35778;BME280;21899;42.662;23.316;2023-02-08T04:07:37;96023.88;;;-5.41;95.40
35778;BME280;21899;42.662;23.316;2023-02-08T04:10:03;96014.28;;;-5.57;96.21
35778;BME280;21899;42.662;23.316;2023-02-08T04:12:29;96024.41;;;-5.60;97.00
35778;BME280;21899;42.662;23.316;2023-02-08T04:14:54;96034.63;;;-5.59;96.68
35778;BME280;21899;42.662;23.316;2023-02-08T04:17:20;96029.81;;;-5.67;96.85
35778;BME280;21899;42.662;23.316;2023-02-08T04:19:45;96021.94;;;-5.72;97.21
35778;BME280;21899;42.662;23.316;2023-02-08T04:22:10;96033.28;;;-5.61;98.13
35778;BME280;21899;42.662;23.316;2023-02-08T04:24:36;96027.28;;;-5.62;98.16
35778;BME280;21899;42.662;23.316;2023-02-08T04:27:01;96038.13;;;-5.48;98.16
35778;BME280;21899;42.662;23.316;2023-02-08T04:29:27;96040.25;;;-5.45;97.51
35778;BME280;21899;42.662;23.316;2023-02-08T04:31:52;96029.22;;;-5.52;96.75
35778;BME280;21899;42.662;23.316;2023-02-08T04:34:18;96036.06;;;-5.46;97.45
35778;BME280;21899;42.662;23.316;2023-02-08T04:36:43;96044.50;;;-5.39;97.05
35778;BME280;21899;42.662;23.316;2023-02-08T04:39:08;96036.72;;;-5.34;96.26
35778;BME280;21899;42.662;23.316;2023-02-08T04:41:34;96050.13;;;-5.25;95.87
35778;BME280;21899;42.662;23.316;2023-02-08T04:43:59;96044.31;;;-5.32;95.94
35778;BME280;21899;42.662;23.316;2023-02-08T04:46:25;96044.38;;;-5.27;96.46
35778;BME280;21899;42.662;23.316;2023-02-08T04:48:50;96035.44;;;-5.32;95.18
35778;BME280;21899;42.662;23.316;2023-02-08T04:51:15;96032.59;;;-5.52;94.96
35778;BME280;21899;42.662;23.316;2023-02-08T04:53:41;96026.31;;;-5.56;95.30
35778;BME280;21899;42.662;23.316;2023-02-08T04:56:06;96049.13;;;-5.46;95.67
35778;BME280;21899;42.662;23.316;2023-02-08T04:58:31;96039.41;;;-5.51;96.15
35778;BME280;21899;42.662;23.316;2023-02-08T05:00:57;96070.22;;;-5.48;95.98
35778;BME280;21899;42.662;23.316;2023-02-08T05:03:22;96075.63;;;-5.54;95.80
35778;BME280;21899;42.662;23.316;2023-02-08T05:05:56;96085.19;;;-5.60;96.11
35778;BME280;21899;42.662;23.316;2023-02-08T05:08:22;96084.59;;;-5.67;95.35
35778;BME280;21899;42.662;23.316;2023-02-08T05:10:47;96097.16;;;-5.64;95.78
35778;BME280;21899;42.662;23.316;2023-02-08T05:13:12;96097.75;;;-5.57;95.83
35778;BME280;21899;42.662;23.316;2023-02-08T05:15:38;96097.75;;;-5.57;95.71
35778;BME280;21899;42.662;23.316;2023-02-08T05:18:03;96091.84;;;-5.52;95.36
35778;BME280;21899;42.662;23.316;2023-02-08T05:20:29;96098.72;;;-5.63;94.89
35778;BME280;21899;42.662;23.316;2023-02-08T05:22:54;96098.19;;;-5.65;95.65
35778;BME280;21899;42.662;23.316;2023-02-08T05:25:20;96097.34;;;-5.70;96.08
35778;BME280;21899;42.662;23.316;2023-02-08T05:27:45;96088.59;;;-5.81;96.70
35778;BME280;21899;42.662;23.316;2023-02-08T05:30:11;96103.00;;;-5.73;97.44
35778;BME280;21899;42.662;23.316;2023-02-08T05:32:37;96088.66;;;-5.76;97.45
35778;BME280;21899;42.662;23.316;2023-02-08T05:35:02;96109.09;;;-5.68;96.98
35778;BME280;21899;42.662;23.316;2023-02-08T05:37:28;96096.78;;;-5.72;97.12
35778;BME280;21899;42.662;23.316;2023-02-08T05:39:53;96108.38;;;-5.63;97.38
35778;BME280;21899;42.662;23.316;2023-02-08T05:42:18;96117.13;;;-5.53;99.12
35778;BME280;21899;42.662;23.316;2023-02-08T05:44:44;96117.69;;;-5.51;98.48
35778;BME280;21899;42.662;23.316;2023-02-08T05:47:09;96115.78;;;-5.55;97.44
35778;BME280;21899;42.662;23.316;2023-02-08T05:49:35;96100.97;;;-5.71;96.98
35778;BME280;21899;42.662;23.316;2023-02-08T05:52:00;96100.16;;;-5.72;96.97
35778;BME280;21899;42.662;23.316;2023-02-08T05:54:25;96126.44;;;-5.57;96.68
35778;BME280;21899;42.662;23.316;2023-02-08T05:56:51;96124.16;;;-5.53;97.21
35778;BME280;21899;42.662;23.316;2023-02-08T05:59:16;96129.19;;;-5.47;97.16
35778;BME280;21899;42.662;23.316;2023-02-08T06:01:42;96129.13;;;-5.30;96.92
35778;BME280;21899;42.662;23.316;2023-02-08T06:04:07;96126.09;;;-5.22;96.69
35778;BME280;21899;42.662;23.316;2023-02-08T06:06:32;96125.25;;;-5.06;96.51
35778;BME280;21899;42.662;23.316;2023-02-08T06:08:58;96110.88;;;-5.08;94.91
35778;BME280;21899;42.662;23.316;2023-02-08T06:11:23;96095.81;;;-5.01;94.74
35778;BME280;21899;42.662;23.316;2023-02-08T06:13:48;96124.75;;;-4.81;93.74
35778;BME280;21899;42.662;23.316;2023-02-08T06:16:14;96117.97;;;-4.77;93.37
35778;BME280;21899;42.662;23.316;2023-02-08T06:18:40;96116.75;;;-4.70;93.13
35778;BME280;21899;42.662;23.316;2023-02-08T06:21:05;96117.78;;;-4.71;92.08
35778;BME280;21899;42.662;23.316;2023-02-08T06:23:31;96132.78;;;-4.61;91.68
35778;BME280;21899;42.662;23.316;2023-02-08T06:25:56;96131.25;;;-4.57;91.17
35778;BME280;21899;42.662;23.316;2023-02-08T06:28:22;96125.31;;;-4.48;91.03
35778;BME280;21899;42.662;23.316;2023-02-08T06:30:48;96119.13;;;-4.42;90.05
35778;BME280;21899;42.662;23.316;2023-02-08T06:33:14;96129.75;;;-4.22;89.99
35778;BME280;21899;42.662;23.316;2023-02-08T06:35:46;96126.09;;;-4.21;89.36
35778;BME280;21899;42.662;23.316;2023-02-08T06:38:12;96138.16;;;-4.15;87.69
35778;BME280;21899;42.662;23.316;2023-02-08T06:40:38;96133.22;;;-4.11;86.23
35778;BME280;21899;42.662;23.316;2023-02-08T06:43:03;96138.34;;;-4.21;84.30
35778;BME280;21899;42.662;23.316;2023-02-08T06:45:29;96120.88;;;-4.47;83.60
35778;BME280;21899;42.662;23.316;2023-02-08T06:47:54;96147.06;;;-4.42;82.86
35778;BME280;21899;42.662;23.316;2023-02-08T06:50:19;96148.06;;;-4.48;83.15
35778;BME280;21899;42.662;23.316;2023-02-08T06:52:45;96148.56;;;-4.51;82.08
35778;BME280;21899;42.662;23.316;2023-02-08T06:55:11;96142.94;;;-4.65;82.15
35778;BME280;21899;42.662;23.316;2023-02-08T06:57:37;96145.09;;;-4.57;81.86
35778;BME280;21899;42.662;23.316;2023-02-08T07:00:03;96148.22;;;-4.60;81.76
35778;BME280;21899;42.662;23.316;2023-02-08T07:02:28;96156.25;;;-4.66;80.95
35778;BME280;21899;42.662;23.316;2023-02-08T07:04:55;96158.88;;;-4.66;80.37
35778;BME280;21899;42.662;23.316;2023-02-08T07:07:20;96163.00;;;-4.70;80.98
35778;BME280;21899;42.662;23.316;2023-02-08T07:09:46;96160.22;;;-4.85;81.58
35778;BME280;21899;42.662;23.316;2023-02-08T07:12:11;96147.34;;;-4.92;80.46
35778;BME280;21899;42.662;23.316;2023-02-08T07:14:41;96162.81;;;-4.85;81.36
35778;BME280;21899;42.662;23.316;2023-02-08T07:17:08;96168.66;;;-4.78;81.17
35778;BME280;21899;42.662;23.316;2023-02-08T07:19:33;96170.28;;;-4.72;81.09
35778;BME280;21899;42.662;23.316;2023-02-08T07:21:59;96174.09;;;-4.58;80.23
35778;BME280;21899;42.662;23.316;2023-02-08T07:24:34;96174.72;;;-4.46;78.80
35778;BME280;21899;42.662;23.316;2023-02-08T07:27:00;96160.84;;;-4.52;78.05
35778;BME280;21899;42.662;23.316;2023-02-08T07:29:28;96178.47;;;-4.37;77.39
35778;BME280;21899;42.662;23.316;2023-02-08T07:31:53;96190.94;;;-4.44;77.46
35778;BME280;21899;42.662;23.316;2023-02-08T07:34:18;96192.34;;;-4.37;78.62
35778;BME280;21899;42.662;23.316;2023-02-08T07:36:46;96190.03;;;-4.02;77.27
35778;BME280;21899;42.662;23.316;2023-02-08T07:39:13;96184.50;;;-3.73;74.55
35778;BME280;21899;42.662;23.316;2023-02-08T07:41:38;96190.81;;;-3.28;73.04
35778;BME280;21899;42.662;23.316;2023-02-08T07:44:04;96187.31;;;-2.97;70.56
35778;BME280;21899;42.662;23.316;2023-02-08T07:46:29;96190.03;;;-2.72;68.86
35778;BME280;21899;42.662;23.316;2023-02-08T07:48:54;96186.88;;;-2.74;68.52
35778;BME280;21899;42.662;23.316;2023-02-08T07:51:20;96191.16;;;-2.42;69.33
35778;BME280;21899;42.662;23.316;2023-02-08T07:53:45;96191.16;;;-2.47;66.82
35778;BME280;21899;42.662;23.316;2023-02-08T07:56:11;96184.34;;;-2.48;67.15
35778;BME280;21899;42.662;23.316;2023-02-08T07:58:36;96190.84;;;-2.61;66.93
35778;BME280;21899;42.662;23.316;2023-02-08T08:01:02;96193.13;;;-2.90;66.95
35778;BME280;21899;42.662;23.316;2023-02-08T08:03:27;96186.75;;;-3.04;67.81
35778;BME280;21899;42.662;23.316;2023-02-08T08:05:53;96192.44;;;-3.17;69.02
35778;BME280;21899;42.662;23.316;2023-02-08T08:08:19;96183.34;;;-3.09;69.93
35778;BME280;21899;42.662;23.316;2023-02-08T08:10:44;96179.25;;;-2.85;70.17
35778;BME280;21899;42.662;23.316;2023-02-08T08:13:11;96178.00;;;-2.57;69.08
35778;BME280;21899;42.662;23.316;2023-02-08T08:15:36;96177.03;;;-2.36;68.04
35778;BME280;21899;42.662;23.316;2023-02-08T08:18:01;96176.00;;;-2.15;67.97
35778;BME280;21899;42.662;23.316;2023-02-08T08:20:27;96165.00;;;-2.07;66.50
35778;BME280;21899;42.662;23.316;2023-02-08T08:22:52;96178.91;;;-2.07;64.39
35778;BME280;21899;42.662;23.316;2023-02-08T08:25:18;96168.16;;;-2.15;64.39
35778;BME280;21899;42.662;23.316;2023-02-08T08:27:43;96182.81;;;-2.14;63.63
35778;BME280;21899;42.662;23.316;2023-02-08T08:30:13;96179.44;;;-2.00;63.62
35778;BME280;21899;42.662;23.316;2023-02-08T08:32:39;96179.69;;;-2.01;63.24
35778;BME280;21899;42.662;23.316;2023-02-08T08:35:05;96181.03;;;-1.84;62.00
35778;BME280;21899;42.662;23.316;2023-02-08T08:37:31;96180.75;;;-1.77;60.91
35778;BME280;21899;42.662;23.316;2023-02-08T08:39:57;96189.13;;;-1.75;59.96
35778;BME280;21899;42.662;23.316;2023-02-08T08:42:22;96175.78;;;-1.84;58.91
35778;BME280;21899;42.662;23.316;2023-02-08T08:44:48;96187.84;;;-1.83;59.92
35778;BME280;21899;42.662;23.316;2023-02-08T08:47:14;96199.91;;;-1.82;59.71
35778;BME280;21899;42.662;23.316;2023-02-08T08:49:40;96195.19;;;-1.90;60.22
35778;BME280;21899;42.662;23.316;2023-02-08T08:52:07;96191.50;;;-2.14;61.67
35778;BME280;21899;42.662;23.316;2023-02-08T08:54:33;96198.31;;;-2.13;61.80
35778;BME280;21899;42.662;23.316;2023-02-08T08:56:59;96178.91;;;-2.22;61.04
35778;BME280;21899;42.662;23.316;2023-02-08T08:59:24;96210.38;;;-2.22;62.34
35778;BME280;21899;42.662;23.316;2023-02-08T09:01:49;96202.25;;;-2.20;60.95
35778;BME280;21899;42.662;23.316;2023-02-08T09:04:15;96208.50;;;-2.21;61.29
35778;BME280;21899;42.662;23.316;2023-02-08T09:06:40;96211.13;;;-2.31;61.63
35778;BME280;21899;42.662;23.316;2023-02-08T09:09:06;96211.88;;;-2.41;62.60
35778;BME280;21899;42.662;23.316;2023-02-08T09:11:31;96219.22;;;-2.48;60.31
35778;BME280;21899;42.662;23.316;2023-02-08T09:13:58;96216.34;;;-2.41;60.77
35778;BME280;21899;42.662;23.316;2023-02-08T09:16:23;96193.47;;;-2.56;60.93
35778;BME280;21899;42.662;23.316;2023-02-08T09:18:49;96224.72;;;-2.44;61.61
35778;BME280;21899;42.662;23.316;2023-02-08T09:21:18;96216.88;;;-2.34;62.51
35778;BME280;21899;42.662;23.316;2023-02-08T09:23:44;96224.28;;;-2.11;60.05
35778;BME280;21899;42.662;23.316;2023-02-08T09:26:12;96212.75;;;-2.15;59.47
35778;BME280;21899;42.662;23.316;2023-02-08T09:28:38;96227.44;;;-1.99;59.35
35778;BME280;21899;42.662;23.316;2023-02-08T09:31:17;96222.22;;;-1.94;59.33
35778;BME280;21899;42.662;23.316;2023-02-08T09:33:43;96228.00;;;-1.87;58.41
35778;BME280;21899;42.662;23.316;2023-02-08T09:36:09;96220.66;;;-1.85;59.42
35778;BME280;21899;42.662;23.316;2023-02-08T09:38:35;96229.81;;;-1.83;58.94
35778;BME280;21899;42.662;23.316;2023-02-08T09:41:46;96218.53;;;-1.78;59.55
35778;BME280;21899;42.662;23.316;2023-02-08T09:47:01;96220.13;;;-1.97;58.77
35778;BME280;21899;42.662;23.316;2023-02-08T09:49:33;96212.75;;;-2.05;59.72
35778;BME280;21899;42.662;23.316;2023-02-08T09:52:03;96211.41;;;-2.18;59.12
35778;BME280;21899;42.662;23.316;2023-02-08T09:54:35;96212.72;;;-2.20;59.73
35778;BME280;21899;42.662;23.316;2023-02-08T09:57:04;96217.72;;;-2.14;58.62
35778;BME280;21899;42.662;23.316;2023-02-08T09:59:34;96222.94;;;-2.24;58.53
35778;BME280;21899;42.662;23.316;2023-02-08T10:02:16;96215.31;;;-2.35;59.01
35778;BME280;21899;42.662;23.316;2023-02-08T10:05:05;96218.22;;;-2.32;59.13
35778;BME280;21899;42.662;23.316;2023-02-08T10:07:32;96210.56;;;-2.43;59.90
35778;BME280;21899;42.662;23.316;2023-02-08T10:10:05;96200.09;;;-2.43;61.11
35778;BME280;21899;42.662;23.316;2023-02-08T10:20:27;96200.06;;;-0.98;55.63
35778;BME280;21899;42.662;23.316;2023-02-08T10:36:40;96196.47;;;-0.48;51.21
35778;BME280;21899;42.662;23.316;2023-02-08T10:39:24;96203.88;;;-0.12;51.38
35778;BME280;21899;42.662;23.316;2023-02-08T10:41:52;96198.41;;;0.19;50.16
35778;BME280;21899;42.662;23.316;2023-02-08T10:49:38;96198.03;;;0.92;48.07
35778;BME280;21899;42.662;23.316;2023-02-08T10:52:06;96186.38;;;0.98;47.68
35778;BME280;21899;42.662;23.316;2023-02-08T10:54:35;96188.41;;;1.30;46.90
35778;BME280;21899;42.662;23.316;2023-02-08T10:57:02;96205.19;;;1.58;46.65
35778;BME280;21899;42.662;23.316;2023-02-08T10:59:44;96202.53;;;1.15;45.63
35778;BME280;21899;42.662;23.316;2023-02-08T11:02:22;96193.91;;;1.10;46.36
35778;BME280;21899;42.662;23.316;2023-02-08T11:05:07;96192.16;;;1.00;47.08
35778;BME280;21899;42.662;23.316;2023-02-08T11:07:33;96205.47;;;1.14;46.28
35778;BME280;21899;42.662;23.316;2023-02-08T11:12:40;96206.84;;;0.54;46.92
35778;BME280;21899;42.662;23.316;2023-02-08T11:15:30;96211.81;;;0.56;46.87
35778;BME280;21899;42.662;23.316;2023-02-08T11:17:59;96212.28;;;0.29;47.35
35778;BME280;21899;42.662;23.316;2023-02-08T11:20:32;96221.72;;;0.02;49.76
35778;BME280;21899;42.662;23.316;2023-02-08T11:23:01;96207.88;;;-0.68;52.95
35778;BME280;21899;42.662;23.316;2023-02-08T11:25:38;96215.25;;;-0.75;54.39
35778;BME280;21899;42.662;23.316;2023-02-08T11:28:04;96217.69;;;-0.98;53.96
35778;BME280;21899;42.662;23.316;2023-02-08T11:31:00;96209.59;;;-1.37;55.63
35778;BME280;21899;42.662;23.316;2023-02-08T11:33:28;96219.59;;;-1.79;58.09
35778;BME280;21899;42.662;23.316;2023-02-08T11:36:05;96221.94;;;-2.03;58.98
35778;BME280;21899;42.662;23.316;2023-02-08T11:38:34;96223.22;;;-2.25;60.74
35778;BME280;21899;42.662;23.316;2023-02-08T11:41:02;96209.53;;;-2.32;61.43
35778;BME280;21899;42.662;23.316;2023-02-08T11:43:33;96219.03;;;-2.06;63.02
35778;BME280;21899;42.662;23.316;2023-02-08T11:46:01;96228.50;;;-2.10;60.85
35778;BME280;21899;42.662;23.316;2023-02-08T11:48:54;96219.75;;;-2.41;62.42
35778;BME280;21899;42.662;23.316;2023-02-08T11:51:34;96217.94;;;-2.35;61.39
35778;BME280;21899;42.662;23.316;2023-02-08T11:54:01;96212.72;;;-2.30;60.98
35778;BME280;21899;42.662;23.316;2023-02-08T11:56:29;96214.28;;;-2.29;60.51
35778;BME280;21899;42.662;23.316;2023-02-08T11:58:58;96223.47;;;-2.27;58.90
35778;BME280;21899;42.662;23.316;2023-02-08T12:01:29;96202.19;;;-2.45;58.98
35778;BME280;21899;42.662;23.316;2023-02-08T12:03:58;96224.25;;;-2.36;60.73
35778;BME280;21899;42.662;23.316;2023-02-08T12:20:41;96224.25;;;-2.26;59.44
35778;BME280;21899;42.662;23.316;2023-02-08T12:26:10;96212.47;;;-2.24;60.11
35778;BME280;21899;42.662;23.316;2023-02-08T12:34:04;96211.38;;;-2.28;61.74
35778;BME280;21899;42.662;23.316;2023-02-08T12:46:18;96223.19;;;-2.35;57.41
35778;BME280;21899;42.662;23.316;2023-02-08T12:54:34;96224.28;;;-2.06;55.45
35778;BME280;21899;42.662;23.316;2023-02-08T12:57:02;96212.50;;;-1.94;54.71
35778;BME280;21899;42.662;23.316;2023-02-08T12:59:45;96218.53;;;-1.83;54.99
35778;BME280;21899;42.662;23.316;2023-02-08T13:02:17;96227.47;;;-1.64;53.54
35778;BME280;21899;42.662;23.316;2023-02-08T13:04:48;96232.19;;;-1.66;52.94
35778;BME280;21899;42.662;23.316;2023-02-08T13:07:25;96241.63;;;-1.75;52.66
35778;BME280;21899;42.662;23.316;2023-02-08T13:12:47;96238.25;;;-1.61;52.14
35778;BME280;21899;42.662;23.316;2023-02-08T13:15:28;96238.25;;;-1.51;51.73
35778;BME280;21899;42.662;23.316;2023-02-08T13:17:58;96241.66;;;-1.55;51.63
35778;BME280;21899;42.662;23.316;2023-02-08T13:22:56;96238.50;;;-1.57;52.01
35778;BME280;21899;42.662;23.316;2023-02-08T13:25:33;96244.00;;;-1.44;51.30
35778;BME280;21899;42.662;23.316;2023-02-08T13:28:02;96244.28;;;-1.40;50.15
35778;BME280;21899;42.662;23.316;2023-02-08T13:30:28;96241.13;;;-1.52;49.68
35778;BME280;21899;42.662;23.316;2023-02-08T13:32:54;96245.84;;;-1.34;50.21
35778;BME280;21899;42.662;23.316;2023-02-08T13:35:27;96237.44;;;-1.61;49.86
35778;BME280;21899;42.662;23.316;2023-02-08T13:38:00;96253.72;;;-1.74;51.01
35778;BME280;21899;42.662;23.316;2023-02-08T13:40:29;96244.25;;;-1.95;52.35
35778;BME280;21899;42.662;23.316;2023-02-08T13:43:30;96260.25;;;-2.07;52.87
35778;BME280;21899;42.662;23.316;2023-02-08T13:46:00;96266.78;;;-2.09;53.92
35778;BME280;21899;42.662;23.316;2023-02-08T13:48:43;96251.78;;;-2.24;53.96
35778;BME280;21899;42.662;23.316;2023-02-08T13:56:44;96262.72;;;-2.52;56.11
35778;BME280;21899;42.662;23.316;2023-02-08T13:59:23;96268.19;;;-2.58;57.94
35778;BME280;21899;42.662;23.316;2023-02-08T14:04:43;96271.13;;;-2.50;56.55
35778;BME280;21899;42.662;23.316;2023-02-08T14:10:03;96271.03;;;-2.70;55.34
35778;BME280;21899;42.662;23.316;2023-02-08T14:17:41;96265.03;;;-2.60;57.66
35778;BME280;21899;42.662;23.316;2023-02-08T14:20:17;96262.16;;;-2.59;57.94
35778;BME280;21899;42.662;23.316;2023-02-08T14:22:50;96290.22;;;-2.59;57.14
35778;BME280;21899;42.662;23.316;2023-02-08T14:25:22;96272.66;;;-2.54;58.38
35778;BME280;21899;42.662;23.316;2023-02-08T14:27:55;96286.31;;;-2.52;58.12
35778;BME280;21899;42.662;23.316;2023-02-08T14:30:28;96273.47;;;-2.48;57.96
35778;BME280;21899;42.662;23.316;2023-02-08T14:35:26;96279.72;;;-2.54;60.44
35778;BME280;21899;42.662;23.316;2023-02-08T14:40:56;96277.31;;;-2.66;60.83
35778;BME280;21899;42.662;23.316;2023-02-08T14:45:54;96277.06;;;-2.70;62.16
35778;BME280;21899;42.662;23.316;2023-02-08T14:48:43;96280.13;;;-2.78;62.08
35778;BME280;21899;42.662;23.316;2023-02-08T14:51:25;96268.50;;;-3.02;62.80
35778;BME280;21899;42.662;23.316;2023-02-08T14:53:53;96281.03;;;-3.04;64.42
35778;BME280;21899;42.662;23.316;2023-02-08T14:57:05;96277.56;;;-3.19;63.84
35778;BME280;21899;42.662;23.316;2023-02-08T14:59:14;96294.00;;;-3.24;65.43
35778;BME280;21899;42.662;23.316;2023-02-08T15:01:59;96291.09;;;-3.32;66.05
35778;BME280;21899;42.662;23.316;2023-02-08T15:04:25;96303.66;;;-3.29;66.63
35778;BME280;21899;42.662;23.316;2023-02-08T15:09:29;96287.59;;;-3.43;67.26
35778;BME280;21899;42.662;23.316;2023-02-08T15:12:01;96300.13;;;-3.45;67.18
35778;BME280;21899;42.662;23.316;2023-02-08T15:14:29;96299.06;;;-3.49;68.54
35778;BME280;21899;42.662;23.316;2023-02-08T15:16:56;96297.97;;;-3.53;68.53
35778;BME280;21899;42.662;23.316;2023-02-08T15:19:33;96301.38;;;-3.52;68.55
35778;BME280;21899;42.662;23.316;2023-02-08T15:22:19;96304.41;;;-3.65;69.66
35778;BME280;21899;42.662;23.316;2023-02-08T15:24:55;96307.34;;;-3.57;68.80